createdAt,value
2017-12-15T00:00:15.913Z,20.23
2017-12-15T00:02:43.432Z,17.93
2017-12-15T00:05:11.110Z,19.23
2017-12-15T00:07:38.615Z,18.33
2017-12-15T00:10:06.129Z,18.10
2017-12-15T00:12:33.608Z,17.00
2017-12-15T00:15:01.120Z,16.80
2017-12-15T00:17:28.616Z,20.30
2017-12-15T00:19:56.120Z,17.83
2017-12-15T00:22:23.612Z,16.33
2017-12-15T00:24:52.424Z,22.47
2017-12-15T00:27:19.959Z,24.53
2017-12-15T00:29:47.478Z,19.80
2017-12-15T00:32:14.999Z,22.17
2017-12-15T00:34:42.579Z,21.07
2017-12-15T00:37:10.064Z,19.07
2017-12-15T00:39:37.561Z,18.40
2017-12-15T00:42:05.152Z,25.80
2017-12-15T00:44:32.635Z,17.77
2017-12-15T00:47:00.137Z,18.67
2017-12-15T00:49:27.629Z,20.40
2017-12-15T00:51:55.192Z,30.03
2017-12-15T00:54:22.690Z,21.40
2017-12-15T00:56:50.201Z,22.93
2017-12-15T00:59:17.657Z,22.23
2017-12-15T01:01:45.111Z,19.70
2017-12-15T01:04:12.579Z,23.33
2017-12-15T01:06:40.082Z,17.47
2017-12-15T01:09:07.573Z,20.20
2017-12-15T01:11:35.053Z,20.47
2017-12-15T01:14:02.510Z,19.67
2017-12-15T01:16:30.010Z,23.30
2017-12-15T01:18:57.491Z,22.70
2017-12-15T01:21:24.958Z,25.00
2017-12-15T01:23:52.450Z,26.00
2017-12-15T01:26:19.963Z,24.53
2017-12-15T01:28:47.432Z,20.97
2017-12-15T01:31:14.928Z,19.37
2017-12-15T01:33:42.383Z,20.77
2017-12-15T01:36:09.846Z,21.80
2017-12-15T01:38:37.310Z,20.77
2017-12-15T01:41:04.776Z,24.77
2017-12-15T01:43:32.235Z,21.13
2017-12-15T01:45:59.697Z,27.07
2017-12-15T01:48:27.156Z,19.77
2017-12-15T01:50:54.630Z,26.17
2017-12-15T01:53:22.760Z,23.30
2017-12-15T01:55:50.278Z,22.40
2017-12-15T01:58:17.850Z,19.67
2017-12-15T02:00:46.546Z,24.10
2017-12-15T02:03:14.040Z,28.50
2017-12-15T02:05:41.847Z,23.70
2017-12-15T02:08:09.327Z,28.57
2017-12-15T02:10:36.869Z,23.13
2017-12-15T02:13:05.045Z,27.60
2017-12-15T02:15:32.522Z,26.13
2017-12-15T02:18:01.957Z,27.83
2017-12-15T02:20:30.921Z,28.67
2017-12-15T02:22:58.379Z,30.90
2017-12-15T02:25:25.888Z,27.10
2017-12-15T02:27:53.352Z,24.43
2017-12-15T02:30:20.836Z,30.90
2017-12-15T02:32:48.336Z,28.00
2017-12-15T02:35:15.907Z,35.70
2017-12-15T02:37:43.380Z,27.73
2017-12-15T02:40:10.908Z,31.70
2017-12-15T02:42:38.378Z,31.63
2017-12-15T02:45:05.839Z,28.93
2017-12-15T02:47:33.304Z,28.77
2017-12-15T02:50:00.768Z,30.57
2017-12-15T02:52:28.268Z,32.33
2017-12-15T02:54:55.728Z,32.73
2017-12-15T02:57:23.185Z,32.43
2017-12-15T02:59:50.655Z,29.57
2017-12-15T03:02:18.123Z,30.13
2017-12-15T03:04:45.600Z,32.93
2017-12-15T03:07:13.057Z,33.13
2017-12-15T03:09:40.544Z,32.10
2017-12-15T03:12:08.064Z,32.07
2017-12-15T03:14:35.517Z,35.63
2017-12-15T03:17:03.039Z,34.40
2017-12-15T03:19:30.507Z,36.10
2017-12-15T03:21:57.980Z,41.17
2017-12-15T03:24:25.555Z,35.67
2017-12-15T03:26:53.020Z,40.07
2017-12-15T03:29:20.522Z,36.83
2017-12-15T03:31:47.992Z,36.70
2017-12-15T03:34:15.698Z,34.87
2017-12-15T03:36:43.306Z,33.57
2017-12-15T03:39:10.763Z,37.83
2017-12-15T03:41:38.256Z,37.50
2017-12-15T03:44:05.710Z,39.33
2017-12-15T03:46:33.392Z,38.53
2017-12-15T03:49:00.876Z,39.37
2017-12-15T03:51:28.325Z,40.63
2017-12-15T03:53:55.795Z,42.60
2017-12-15T03:56:23.287Z,43.20
2017-12-15T03:58:50.798Z,38.27
2017-12-15T04:01:18.286Z,43.43
2017-12-15T04:03:45.728Z,43.00
2017-12-15T04:06:13.192Z,42.67
2017-12-15T04:08:40.696Z,41.80
2017-12-15T04:11:08.231Z,40.53
2017-12-15T04:13:35.698Z,43.37
2017-12-15T04:16:03.185Z,44.13
2017-12-15T04:18:30.632Z,41.93
2017-12-15T04:20:58.152Z,41.83
2017-12-15T04:23:25.640Z,43.40
2017-12-15T04:25:53.148Z,44.40
2017-12-15T04:28:20.611Z,44.47
2017-12-15T04:30:48.252Z,44.80
2017-12-15T04:33:15.822Z,41.17
2017-12-15T04:35:43.401Z,36.80
2017-12-15T04:38:10.872Z,36.07
2017-12-15T04:40:38.396Z,41.77
2017-12-15T04:43:05.848Z,38.57
2017-12-15T04:45:33.311Z,41.00
2017-12-15T04:48:01.269Z,41.07
2017-12-15T04:50:28.858Z,39.63
2017-12-15T04:52:56.344Z,36.30
2017-12-15T04:55:23.833Z,37.20
2017-12-15T04:57:51.289Z,40.73
2017-12-15T05:00:18.775Z,36.00
2017-12-15T05:02:46.284Z,38.50
2017-12-15T05:05:13.781Z,38.10
2017-12-15T05:07:41.251Z,39.93
2017-12-15T05:10:08.720Z,35.90
2017-12-15T05:12:36.200Z,38.83
2017-12-15T05:15:03.707Z,40.80
2017-12-15T05:17:31.168Z,36.13
2017-12-15T05:19:58.668Z,35.50
2017-12-15T05:22:26.169Z,41.63
2017-12-15T05:24:53.698Z,40.70
2017-12-15T05:27:21.165Z,40.77
2017-12-15T05:29:48.654Z,38.10
2017-12-15T05:32:16.177Z,38.83
2017-12-15T05:34:43.684Z,40.07
2017-12-15T05:37:11.154Z,47.30
2017-12-15T05:39:38.625Z,47.60
2017-12-15T05:42:06.123Z,43.10
2017-12-15T05:44:33.773Z,41.60
2017-12-15T05:47:01.227Z,43.93
2017-12-15T05:49:28.697Z,48.77
2017-12-15T05:51:56.239Z,43.17
2017-12-15T05:54:23.695Z,43.70
2017-12-15T05:56:51.169Z,40.50
2017-12-15T05:59:18.648Z,38.63
2017-12-15T06:01:46.157Z,37.10
2017-12-15T06:04:13.737Z,33.67
2017-12-15T06:06:41.236Z,34.90
2017-12-15T06:09:08.703Z,43.90
2017-12-15T06:11:36.188Z,36.77
2017-12-15T06:14:03.660Z,35.27
2017-12-15T06:16:31.360Z,28.57
2017-12-15T06:18:58.853Z,25.33
2017-12-15T06:21:26.371Z,24.60
2017-12-15T06:23:53.884Z,22.50
2017-12-15T06:26:21.338Z,20.63
2017-12-15T06:28:48.811Z,19.40
2017-12-15T06:31:16.304Z,20.03
2017-12-15T06:33:43.787Z,16.23
2017-12-15T06:36:11.283Z,12.00
2017-12-15T06:38:38.769Z,8.27
2017-12-15T06:41:06.288Z,8.80
2017-12-15T06:43:33.754Z,13.50
2017-12-15T06:46:01.231Z,9.27
2017-12-15T06:48:28.772Z,10.50
2017-12-15T06:50:56.284Z,10.13
2017-12-15T06:53:23.774Z,11.37
2017-12-15T06:55:51.240Z,11.20
2017-12-15T07:11:13.716Z,7.03
2017-12-15T07:13:41.232Z,9.60
2017-12-15T07:16:08.684Z,6.47
2017-12-15T07:18:36.133Z,7.73
2017-12-15T07:21:03.632Z,9.67
2017-12-15T07:23:31.101Z,5.20
2017-12-15T07:25:58.566Z,4.93
2017-12-15T07:28:26.081Z,7.00
2017-12-15T07:30:53.868Z,8.13
2017-12-15T07:33:21.328Z,5.90
2017-12-15T07:35:48.808Z,5.90
2017-12-15T07:38:16.396Z,5.13
2017-12-15T07:40:43.847Z,6.00
2017-12-15T07:43:11.358Z,9.87
2017-12-15T07:45:38.868Z,4.90
2017-12-15T07:48:06.312Z,5.90
2017-12-15T07:50:33.787Z,4.80
2017-12-15T07:53:01.246Z,5.90
2017-12-15T07:55:28.767Z,7.10
2017-12-15T07:57:56.244Z,6.33
2017-12-15T08:00:23.828Z,4.70
2017-12-15T08:02:53.253Z,4.87
2017-12-15T08:05:21.215Z,4.57
2017-12-15T08:08:02.381Z,7.13
2017-12-15T08:10:35.037Z,5.07
2017-12-15T08:13:03.160Z,9.00
2017-12-15T08:15:30.623Z,6.00
2017-12-15T08:18:00.392Z,5.17
2017-12-15T08:20:28.000Z,6.60
2017-12-15T08:22:58.864Z,11.27
2017-12-15T08:25:28.581Z,8.57
2017-12-15T08:28:00.193Z,11.67
2017-12-15T08:30:27.807Z,5.37
2017-12-15T08:32:56.603Z,4.60
2017-12-15T08:35:24.115Z,5.43
2017-12-15T08:37:51.627Z,3.60
2017-12-15T08:40:19.096Z,3.27
2017-12-15T08:42:50.799Z,4.63
2017-12-15T08:45:19.231Z,5.13
2017-12-15T08:47:46.738Z,3.93
2017-12-15T08:50:15.015Z,6.37
2017-12-15T08:52:43.172Z,3.10
2017-12-15T08:55:10.669Z,2.47
2017-12-15T08:57:39.100Z,3.23
2017-12-15T09:00:06.762Z,6.00
2017-12-15T09:02:34.291Z,2.63
2017-12-15T09:05:01.754Z,2.23
2017-12-15T09:07:29.209Z,2.50
2017-12-15T09:09:56.719Z,4.87
2017-12-15T09:12:24.360Z,2.87
2017-12-15T09:14:51.856Z,2.53
2017-12-15T09:17:19.378Z,2.70
2017-12-15T09:19:46.857Z,3.23
2017-12-15T09:22:14.473Z,5.00
2017-12-15T09:24:45.340Z,1.90
2017-12-15T09:27:12.933Z,1.73
2017-12-15T09:29:40.542Z,2.33
2017-12-15T09:32:08.064Z,2.00
2017-12-15T09:34:35.762Z,1.67
2017-12-15T09:37:03.529Z,1.80
2017-12-15T09:39:34.900Z,2.53
2017-12-15T09:42:06.838Z,1.70
2017-12-15T09:44:49.775Z,1.30
2017-12-15T09:47:22.622Z,1.53
2017-12-15T09:49:56.754Z,2.00
2017-12-15T09:52:27.521Z,1.23
2017-12-15T09:55:05.189Z,1.53
2017-12-15T10:10:29.771Z,2.43
2017-12-15T10:13:00.482Z,1.37
2017-12-15T10:15:30.479Z,3.30
2017-12-15T10:18:01.880Z,10.30
2017-12-15T10:20:32.293Z,3.90
2017-12-15T10:23:19.488Z,1.30
2017-12-15T10:25:49.317Z,2.27
2017-12-15T10:28:26.790Z,1.80
2017-12-15T10:30:54.361Z,1.27
2017-12-15T10:33:32.374Z,4.40
2017-12-15T10:35:59.909Z,1.33
2017-12-15T10:38:27.396Z,2.00
2017-12-15T10:40:54.878Z,2.37
2017-12-15T10:43:22.376Z,3.93
2017-12-15T10:45:49.968Z,1.73
2017-12-15T10:48:17.738Z,1.70
2017-12-15T10:50:45.201Z,2.17
2017-12-15T10:53:13.619Z,1.40
2017-12-15T10:55:42.712Z,1.50
2017-12-15T10:58:19.151Z,1.63
2017-12-15T11:00:46.721Z,2.70
2017-12-15T11:03:14.938Z,1.47
2017-12-15T11:05:42.891Z,1.20
2017-12-15T11:08:10.369Z,1.57
2017-12-15T11:10:37.815Z,1.07
2017-12-15T11:13:05.303Z,1.13
2017-12-15T11:15:32.818Z,1.03
2017-12-15T11:18:00.302Z,0.97
2017-12-15T11:20:27.828Z,3.17
2017-12-15T11:22:55.302Z,2.73
2017-12-15T11:25:22.816Z,1.30
2017-12-15T11:27:50.284Z,1.43
2017-12-15T11:30:17.737Z,5.17
2017-12-15T11:32:45.260Z,0.97
2017-12-15T11:35:12.725Z,2.73
2017-12-15T11:37:40.169Z,0.80
2017-12-15T11:40:07.683Z,0.87
2017-12-15T11:42:35.147Z,1.33
2017-12-15T11:45:02.632Z,2.60
2017-12-15T11:47:30.111Z,1.30
2017-12-15T11:49:57.555Z,3.27
2017-12-15T11:52:25.112Z,1.67
2017-12-15T11:54:52.590Z,1.90
2017-12-15T11:57:20.120Z,1.40
2017-12-15T11:59:47.574Z,1.50
2017-12-15T12:02:15.111Z,2.37
2017-12-15T12:04:42.718Z,1.47
2017-12-15T12:07:10.212Z,1.20
2017-12-15T12:09:37.660Z,1.40
2017-12-15T12:12:05.190Z,2.00
2017-12-15T12:14:33.171Z,1.40
2017-12-15T12:17:01.388Z,7.00
2017-12-15T12:19:28.881Z,5.17
2017-12-15T12:21:56.342Z,1.37
2017-12-15T12:24:25.470Z,1.13
2017-12-15T12:26:52.981Z,2.07
2017-12-15T12:29:20.472Z,2.03
2017-12-15T12:31:47.936Z,2.40
2017-12-15T12:34:15.666Z,1.80
2017-12-15T12:36:44.155Z,1.67
2017-12-15T12:39:11.774Z,1.47
2017-12-15T12:41:41.521Z,1.10
2017-12-15T12:44:09.105Z,3.33
2017-12-15T12:46:36.691Z,2.90
2017-12-15T12:49:04.192Z,3.83
2017-12-15T12:51:31.696Z,1.27
2017-12-15T12:53:59.528Z,0.97
2017-12-15T12:56:27.617Z,1.93
2017-12-15T12:58:55.444Z,1.90
2017-12-15T13:01:23.006Z,2.10
2017-12-15T13:03:51.132Z,8.20
2017-12-15T13:06:23.860Z,1.10
2017-12-15T13:08:52.764Z,1.70
2017-12-15T13:11:20.580Z,1.67
2017-12-15T13:13:48.115Z,1.07
2017-12-15T13:16:16.080Z,1.27
2017-12-15T13:18:44.647Z,1.87
2017-12-15T13:21:12.241Z,3.67
2017-12-15T13:23:39.752Z,1.60
2017-12-15T13:26:07.468Z,4.10
2017-12-15T13:28:35.006Z,1.20
2017-12-15T13:31:02.480Z,1.67
2017-12-15T13:33:29.992Z,3.20
2017-12-15T13:35:57.633Z,2.83
2017-12-15T13:38:25.096Z,3.90
2017-12-15T13:40:52.608Z,1.60
2017-12-15T13:43:20.168Z,2.23
2017-12-15T13:45:47.654Z,1.10
2017-12-15T13:48:15.176Z,1.63
2017-12-15T13:50:42.730Z,3.63
2017-12-15T13:53:10.308Z,1.30
2017-12-15T13:55:37.783Z,3.27
2017-12-15T13:58:05.236Z,1.47
2017-12-15T14:00:32.709Z,3.47
2017-12-15T14:03:00.176Z,2.37
2017-12-15T14:05:27.652Z,1.70
2017-12-15T14:07:55.612Z,1.57
2017-12-15T14:10:23.152Z,4.40
2017-12-15T14:12:50.887Z,1.90
2017-12-15T14:15:18.448Z,2.60
2017-12-15T14:17:45.908Z,2.77
2017-12-15T14:20:13.556Z,1.70
2017-12-15T14:22:41.074Z,1.10
2017-12-15T14:25:08.570Z,2.10
2017-12-15T14:27:36.059Z,1.97
2017-12-15T14:30:03.594Z,1.30
2017-12-15T14:32:31.411Z,1.67
2017-12-15T14:34:58.918Z,1.30
2017-12-15T14:37:26.457Z,3.07
2017-12-15T14:39:53.932Z,1.80
2017-12-15T14:42:21.404Z,1.77
2017-12-15T14:44:49.496Z,1.80
2017-12-15T14:47:16.955Z,3.70
2017-12-15T14:49:44.472Z,1.30
2017-12-15T14:52:11.920Z,2.00
2017-12-15T14:54:39.726Z,1.47
2017-12-15T14:57:07.264Z,1.20
2017-12-15T14:59:34.740Z,2.80
2017-12-15T15:02:02.212Z,1.97
2017-12-15T15:04:29.890Z,2.73
2017-12-15T15:06:57.488Z,1.40
2017-12-15T15:09:26.097Z,2.20
2017-12-15T15:11:53.635Z,2.23
2017-12-15T15:14:21.169Z,3.43
2017-12-15T15:16:48.667Z,1.20
2017-12-15T15:19:16.132Z,1.10
2017-12-15T15:21:43.605Z,1.30
2017-12-15T15:24:11.077Z,1.90
2017-12-15T15:26:38.611Z,1.43
2017-12-15T15:29:06.102Z,1.57
2017-12-15T15:31:33.610Z,2.00
2017-12-15T15:34:01.104Z,1.50
2017-12-15T15:36:28.706Z,1.27
2017-12-15T15:38:56.306Z,1.37
2017-12-15T15:41:23.902Z,1.50
2017-12-15T15:43:52.264Z,1.67
2017-12-15T15:46:19.735Z,4.87
2017-12-15T15:48:47.223Z,1.80
2017-12-15T15:51:16.068Z,2.80
2017-12-15T15:53:43.536Z,1.70
2017-12-15T15:56:11.018Z,2.40
2017-12-15T15:58:38.485Z,1.83
2017-12-15T16:01:05.964Z,2.67
2017-12-15T16:03:33.447Z,2.17
2017-12-15T16:06:04.120Z,2.17
2017-12-15T16:08:40.003Z,2.03
2017-12-15T16:11:07.486Z,3.40
2017-12-15T16:13:34.952Z,2.90
2017-12-15T16:16:02.465Z,1.43
2017-12-15T16:18:30.457Z,1.60
2017-12-15T16:21:16.534Z,2.17
2017-12-15T16:23:59.119Z,2.77
2017-12-15T16:36:10.004Z,1.50
2017-12-15T16:38:37.495Z,3.10
2017-12-15T16:41:04.984Z,2.33
2017-12-15T16:43:32.518Z,3.13
2017-12-15T16:46:00.001Z,2.00
2017-12-15T16:48:27.533Z,1.90
2017-12-15T16:50:55.086Z,1.93
2017-12-15T16:53:22.589Z,2.50
2017-12-15T16:55:50.064Z,2.50
2017-12-15T16:58:18.475Z,2.00
2017-12-15T17:00:46.216Z,2.67
2017-12-15T17:03:14.914Z,2.90
2017-12-15T17:05:42.648Z,4.20
2017-12-15T17:08:10.134Z,1.83
2017-12-15T17:10:38.478Z,2.00
2017-12-15T17:13:05.993Z,1.67
2017-12-15T17:15:33.484Z,1.83
2017-12-15T17:18:01.162Z,5.13
2017-12-15T17:20:28.673Z,2.10
2017-12-15T17:35:51.303Z,2.23
2017-12-15T17:38:18.766Z,5.53
2017-12-15T17:40:46.288Z,1.77
2017-12-15T17:43:13.824Z,1.90
2017-12-15T17:45:41.364Z,1.60
2017-12-15T17:48:08.805Z,2.10
2017-12-15T17:50:36.717Z,2.60
2017-12-15T17:53:04.252Z,3.23
2017-12-15T17:55:31.726Z,2.40
2017-12-15T17:57:59.200Z,2.77
2017-12-15T18:00:27.662Z,3.37
2017-12-15T18:02:55.286Z,2.80
2017-12-15T18:05:22.762Z,2.55
2017-12-15T18:07:50.267Z,4.73
2017-12-15T18:10:17.990Z,2.50
2017-12-15T18:12:45.759Z,2.70
2017-12-15T18:15:16.582Z,2.67
2017-12-15T18:17:44.148Z,2.07
2017-12-15T18:20:12.358Z,2.03
2017-12-15T18:22:39.932Z,2.10
2017-12-15T18:25:07.412Z,2.93
2017-12-15T18:27:34.928Z,2.60
2017-12-15T18:30:02.386Z,2.60
2017-12-15T18:32:30.058Z,4.63
2017-12-15T18:34:57.582Z,2.40
2017-12-15T18:37:25.047Z,4.40
2017-12-15T18:39:52.620Z,3.50
2017-12-15T18:42:20.190Z,3.80
2017-12-15T18:44:47.653Z,3.80
2017-12-15T18:47:15.231Z,3.00
2017-12-15T18:49:42.711Z,2.70
2017-12-15T18:52:10.233Z,2.70
2017-12-15T18:54:41.763Z,3.80
2017-12-15T18:57:15.171Z,2.67
2017-12-15T18:59:42.833Z,4.07
2017-12-15T19:02:10.321Z,3.30
2017-12-15T19:04:37.922Z,3.07
2017-12-15T19:07:05.416Z,2.83
2017-12-15T19:09:32.952Z,2.87
2017-12-15T19:12:00.518Z,2.93
2017-12-15T19:14:27.978Z,3.13
2017-12-15T19:16:56.951Z,4.23
2017-12-15T19:19:24.448Z,3.30
2017-12-15T19:21:51.933Z,2.70
2017-12-15T19:24:19.389Z,3.53
2017-12-15T19:26:46.893Z,4.00
2017-12-15T19:29:14.370Z,4.27
2017-12-15T19:31:41.936Z,4.43
2017-12-15T19:34:09.423Z,3.40
2017-12-15T19:36:36.920Z,3.20
2017-12-15T19:39:04.401Z,3.70
2017-12-15T19:41:31.868Z,3.43
2017-12-15T19:43:59.394Z,5.30
2017-12-15T19:46:26.876Z,2.40
2017-12-15T19:48:54.392Z,3.33
2017-12-15T19:51:21.960Z,3.83
2017-12-15T19:53:49.448Z,3.03
2017-12-15T19:56:17.068Z,3.60
2017-12-15T19:58:44.568Z,3.53
2017-12-15T20:01:12.166Z,3.53
2017-12-15T20:03:39.676Z,4.17
2017-12-15T20:06:07.245Z,6.67
2017-12-15T20:08:34.835Z,5.60
2017-12-15T20:11:02.351Z,5.97
2017-12-15T20:13:29.847Z,4.47
2017-12-15T20:15:57.391Z,5.37
2017-12-15T20:18:25.233Z,4.77
2017-12-15T20:20:52.812Z,4.30
2017-12-15T20:23:20.415Z,4.77
2017-12-15T20:25:48.014Z,4.10
2017-12-15T20:28:16.531Z,4.40
2017-12-15T20:30:44.304Z,6.03
2017-12-15T20:33:11.828Z,5.87
2017-12-15T20:35:39.372Z,4.80
2017-12-15T20:38:06.956Z,4.87
2017-12-15T20:40:34.436Z,6.50
2017-12-15T20:43:02.513Z,5.13
2017-12-15T20:45:30.015Z,4.23
2017-12-15T20:47:57.576Z,6.13
2017-12-15T20:50:25.941Z,4.03
2017-12-15T20:52:53.455Z,5.37
2017-12-15T20:55:21.535Z,5.50
2017-12-15T20:57:49.269Z,5.87
2017-12-15T21:00:16.758Z,8.00
2017-12-15T21:02:44.279Z,6.33
2017-12-15T21:05:11.773Z,5.90
2017-12-15T21:07:39.419Z,6.33
2017-12-15T21:10:06.996Z,10.23
2017-12-15T21:12:34.483Z,7.47
2017-12-15T21:15:02.010Z,13.80
2017-12-15T21:17:29.573Z,8.23
2017-12-15T21:19:57.134Z,9.53
2017-12-15T21:22:24.637Z,8.33
2017-12-15T21:24:52.204Z,9.27
2017-12-15T21:27:19.716Z,7.47
2017-12-15T21:29:47.180Z,4.87
2017-12-15T21:32:14.993Z,5.43
2017-12-15T21:34:42.524Z,6.83
2017-12-15T21:37:10.049Z,6.00
2017-12-15T21:39:37.565Z,5.83
2017-12-15T21:42:05.135Z,6.03
2017-12-15T21:44:34.198Z,7.07
2017-12-15T21:47:01.764Z,6.27
2017-12-15T21:49:29.231Z,7.60
2017-12-15T21:51:56.669Z,7.37
2017-12-15T21:54:24.889Z,8.40
2017-12-15T21:56:52.438Z,7.63
2017-12-15T21:59:19.892Z,12.60
2017-12-15T22:01:47.480Z,9.00
2017-12-15T22:04:15.262Z,7.93
2017-12-15T22:06:42.900Z,9.03
2017-12-15T22:09:10.497Z,6.67
2017-12-15T22:11:37.974Z,9.77
2017-12-15T22:14:05.511Z,5.70
2017-12-15T22:16:33.043Z,11.40
2017-12-15T22:19:00.500Z,6.63
2017-12-15T22:21:27.994Z,7.00
2017-12-15T22:23:55.487Z,6.07
2017-12-15T22:26:23.150Z,11.83
2017-12-15T22:28:50.685Z,6.53
2017-12-15T22:31:18.166Z,6.10
2017-12-15T22:33:45.733Z,6.97
2017-12-15T22:36:13.293Z,8.90
2017-12-15T22:38:40.835Z,5.80
2017-12-15T22:41:08.444Z,5.07
2017-12-15T22:43:35.943Z,7.77
2017-12-15T22:46:03.448Z,8.87
2017-12-15T22:48:31.011Z,10.17
2017-12-15T22:50:58.545Z,7.80
2017-12-15T22:53:26.004Z,8.53
2017-12-15T22:55:53.526Z,6.13
2017-12-15T22:58:21.083Z,6.70
2017-12-15T23:00:48.532Z,6.47
2017-12-15T23:03:16.125Z,6.30
2017-12-15T23:05:43.670Z,7.43
2017-12-15T23:08:11.136Z,5.17
2017-12-15T23:10:38.678Z,5.47
2017-12-15T23:13:06.508Z,5.03
2017-12-15T23:15:34.058Z,6.13
2017-12-15T23:18:01.554Z,5.63
2017-12-15T23:20:29.018Z,4.70
2017-12-15T23:22:56.504Z,4.37
2017-12-15T23:25:24.641Z,5.17
2017-12-15T23:27:52.128Z,5.33
2017-12-15T23:30:19.585Z,5.20
2017-12-15T23:32:47.240Z,4.60
2017-12-15T23:35:14.809Z,5.50
2017-12-15T23:37:42.296Z,8.97
2017-12-15T23:40:09.853Z,6.07
2017-12-15T23:42:37.324Z,4.93
2017-12-15T23:45:04.845Z,5.20
2017-12-15T23:47:32.331Z,7.07
2017-12-15T23:49:59.885Z,5.90
2017-12-15T23:52:27.522Z,4.23
2017-12-15T23:55:06.824Z,4.57
2017-12-15T23:57:34.320Z,3.63
